^^
Your Local Weather - Clay, NY Station Historical Data
Daily Summary for April 18, 2017 Units:  Metric    English   Both
« Previous Day
Next Day »
Daily Weekly Monthly Yearly Custom
  High: Low: Average:
Temperature: 13.8 °C -0.8 °C 6.6 °C
Dew Point: 2.1 °C -3.4 °C -1.1 °C
Humidity: 86% 34% 60%
Wind Speed: 4.8km/h 0km/h 1.9km/h
Wind Gust: 9.7km/h - -
Wind- - WSW
Pressure: 1030 hPa 1022.9 hPa -
Precipitation: 0 mm    
Historical Graphs
 
 
Tabular Data for April 18, 2017
Time Temperature Dew Point Pressure Wind Wind Speed Wind Gust Humidity Rainfall Rate (Hourly) solar
00:04 3.9 °C 1.2 °C 1022.9 hPa Calm   4.8 km/h 82% 0 mm 0 W/m2
00:10 3.9 °C 1.3 °C 1022.9 hPa NW 1.6 km/h 1.6 km/h 83% 0 mm 0 W/m2
00:16 3.9 °C 1.3 °C 1022.9 hPa NNW 4.8 km/h 9.7 km/h 83% 0 mm 0 W/m2
00:22 3.8 °C 1.1 °C 1022.9 hPa NNW 3.2 km/h 4.8 km/h 82% 0 mm 0 W/m2
00:28 3.8 °C 0.8 °C 1023.6 hPa NNW 3.2 km/h 6.4 km/h 81% 0 mm 0 W/m2
00:34 3.7 °C 0.7 °C 1023.6 hPa NNW 1.6 km/h 3.2 km/h 81% 0 mm 0 W/m2
00:40 3.6 °C 0.6 °C 1023.6 hPa NNW 1.6 km/h 3.2 km/h 81% 0 mm 0 W/m2
00:46 3.4 °C 0.3 °C 1023.6 hPa North 3.2 km/h 8 km/h 80% 0 mm 0 W/m2
00:52 3.4 °C 0.1 °C 1023.6 hPa NNW 3.2 km/h 4.8 km/h 79% 0 mm 0 W/m2
00:58 3.3 °C 0.1 °C 1023.6 hPa NW 3.2 km/h 4.8 km/h 79% 0 mm 0 W/m2
01:04 3.3 °C -0.2 °C 1023.9 hPa North 3.2 km/h 4.8 km/h 78% 0 mm 0 W/m2
01:10 3.2 °C -0.3 °C 1023.9 hPa NNW 3.2 km/h 4.8 km/h 78% 0 mm 0 W/m2
01:16 3.1 °C -0.6 °C 1023.9 hPa NW 3.2 km/h 4.8 km/h 77% 0 mm 0 W/m2
01:22 3 °C -0.7 °C 1023.9 hPa North 3.2 km/h 6.4 km/h 77% 0 mm 0 W/m2
01:34 2.8 °C -0.8 °C 1023.9 hPa NNW 4.8 km/h 4.8 km/h 77% 0 mm 0 W/m2
01:40 2.8 °C -1.1 °C 1023.9 hPa NNW 4.8 km/h 4.8 km/h 76% 0 mm 0 W/m2
01:46 2.7 °C -1.2 °C 1024.3 hPa NNW 3.2 km/h 4.8 km/h 76% 0 mm 0 W/m2
01:52 2.6 °C -1.3 °C 1024.3 hPa North 3.2 km/h 3.2 km/h 76% 0 mm 0 W/m2
01:58 2.4 °C -1.2 °C 1024.6 hPa NNW 1.6 km/h 6.4 km/h 77% 0 mm 0 W/m2
02:04 2.3 °C -1.3 °C 1024.6 hPa NNW 1.6 km/h 4.8 km/h 77% 0 mm 0 W/m2
02:08 2.3 °C -1.3 °C 1024.6 hPa North 3.2 km/h 6.4 km/h 77% 0 mm 0 W/m2
02:14 2.3 °C -1.4 °C 1024.6 hPa NW 3.2 km/h 8 km/h 76% 0 mm 0 W/m2
02:20 2.3 °C -1.3 °C 1024.6 hPa NNW 3.2 km/h 4.8 km/h 77% 0 mm 0 W/m2
02:26 2.2 °C -1.4 °C 1024.6 hPa NNW 1.6 km/h 4.8 km/h 77% 0 mm 0 W/m2
02:32 2.2 °C -1.4 °C 1024.6 hPa NNW 1.6 km/h 1.6 km/h 77% 0 mm 0 W/m2
02:38 2.1 °C -1.6 °C 1024.6 hPa Calm   1.6 km/h 77% 0 mm 0 W/m2
02:50 1.9 °C -1.7 °C 1024.9 hPa Calm   6.4 km/h 77% 0 mm 0 W/m2
03:02 1.7 °C -1.7 °C 1024.9 hPa Calm   1.6 km/h 78% 0 mm 0 W/m2
03:08 1.7 °C -1.7 °C 1024.9 hPa Calm   1.6 km/h 78% 0 mm 0 W/m2
03:14 1.8 °C -1.7 °C 1025.3 hPa Calm     78% 0 mm 0 W/m2
03:20 1.8 °C -1.7 °C 1025.6 hPa NNW 1.6 km/h 1.6 km/h 78% 0 mm 0 W/m2
03:26 1.9 °C -1.7 °C 1025.6 hPa NW 1.6 km/h 4.8 km/h 77% 0 mm 0 W/m2
03:32 1.9 °C -1.9 °C 1025.6 hPa NW 3.2 km/h 3.2 km/h 76% 0 mm 0 W/m2
03:38 1.9 °C -1.9 °C 1025.6 hPa NNW 3.2 km/h 3.2 km/h 76% 0 mm 0 W/m2
03:44 1.8 °C -2.1 °C 1025.6 hPa NNW 1.6 km/h 3.2 km/h 75% 0 mm 0 W/m2
03:50 1.8 °C -2.2 °C 1026 hPa NNW 1.6 km/h 4.8 km/h 75% 0 mm 0 W/m2
03:56 1.7 °C -2.3 °C 1026.3 hPa NNW 1.6 km/h 4.8 km/h 75% 0 mm 0 W/m2
04:02 1.6 °C -2.4 °C 1026.3 hPa NNW 1.6 km/h 3.2 km/h 75% 0 mm 0 W/m2
04:08 1.5 °C -2.4 °C 1026.3 hPa Calm   3.2 km/h 75% 0 mm 0 W/m2
04:14 1.4 °C -2.5 °C 1026.3 hPa Calm     75% 0 mm 0 W/m2
04:20 1.3 °C -2.6 °C 1026.3 hPa Calm     75% 0 mm 0 W/m2
04:26 1.2 °C -2.7 °C 1026.6 hPa Calm     75% 0 mm 0 W/m2
04:32 1.2 °C -2.8 °C 1027 hPa Calm     75% 0 mm 0 W/m2
04:38 1.1 °C -2.7 °C 1027 hPa Calm   1.6 km/h 76% 0 mm 0 W/m2
04:44 1.1 °C -2.7 °C 1027 hPa Calm   1.6 km/h 76% 0 mm 0 W/m2
04:50 1.1 °C -2.7 °C 1027.3 hPa Calm   1.6 km/h 76% 0 mm 0 W/m2
04:56 1.1 °C -2.7 °C 1027 hPa NNW 1.6 km/h 1.6 km/h 76% 0 mm 0 W/m2
05:02 1.1 °C -2.7 °C 1027 hPa NNW 1.6 km/h 1.6 km/h 76% 0 mm 0 W/m2
05:08 0.9 °C -2.8 °C 1027 hPa Calm   1.6 km/h 76% 0 mm 0 W/m2
05:14 0.8 °C -2.9 °C 1027 hPa Calm     76% 0 mm 0 W/m2
05:20 0.6 °C -3.1 °C 1027 hPa Calm     76% 0 mm 0 W/m2
05:26 0.4 °C -3.3 °C 1027 hPa Calm     76% 0 mm 0 W/m2
05:32 0.2 °C -3.2 °C 1027 hPa Calm     78% 0 mm 0 W/m2
05:38 0.1 °C -3.2 °C 1027.3 hPa Calm     79% 0 mm 0 W/m2
05:44 -0.1 °C -3.1 °C 1027.3 hPa Calm     80% 0 mm 0 W/m2
05:50 -0.2 °C -3.2 °C 1027.3 hPa Calm     80% 0 mm 0 W/m2
05:56 -0.3 °C -3.2 °C 1027.3 hPa Calm     81% 0 mm 0 W/m2
06:02 -0.3 °C -3.2 °C 1027.3 hPa Calm     81% 0 mm 0 W/m2
06:08 -0.4 °C -3.3 °C 1027.3 hPa Calm     81% 0 mm 0 W/m2
06:14 -0.6 °C -3.4 °C 1027.7 hPa Calm     81% 0 mm 0 W/m2
06:20 -0.6 °C -3.3 °C 1027.7 hPa Calm     82% 0 mm 5 W/m2
06:26 -0.7 °C -3.3 °C 1027.7 hPa Calm     82% 0 mm 7 W/m2
06:32 -0.7 °C -3.2 °C 1027.7 hPa Calm     83% 0 mm 11 W/m2
06:38 -0.7 °C -3.3 °C 1028 hPa Calm     83% 0 mm 14 W/m2
06:46 -0.8 °C -3.3 °C 1028 hPa Calm     83% 0 mm 18 W/m2
06:52 -0.8 °C -3.2 °C 1028 hPa Calm     84% 0 mm 32 W/m2
06:58 -0.7 °C -3.1 °C 1028.3 hPa Calm     84% 0 mm 49 W/m2
07:04 -0.5 °C -2.7 °C 1028.3 hPa Calm     85% 0 mm 90 W/m2
07:10 -0.1 °C -2.1 °C 1028.3 hPa Calm     86% 0 mm 135 W/m2
07:16 1.1 °C -1.2 °C 1028.3 hPa Calm     85% 0 mm 137 W/m2
07:28 1.4 °C -2.1 °C 1028.7 hPa Calm     78% 0 mm 47 W/m2
07:34 1.4 °C -2.1 °C 1028.7 hPa NNW 1.6 km/h 1.6 km/h 78% 0 mm 51 W/m2
07:40 1.6 °C -2.2 °C 1028.7 hPa NNW 1.6 km/h 1.6 km/h 76% 0 mm 209 W/m2
07:46 1.9 °C -2.1 °C 1029 hPa NNW 1.6 km/h 4.8 km/h 75% 0 mm 227 W/m2
07:52 2.2 °C -1.8 °C 1029 hPa NNW 1.6 km/h 4.8 km/h 75% 0 mm 246 W/m2
07:58 2.3 °C -1.8 °C 1029 hPa NNW 1.6 km/h 4.8 km/h 74% 0 mm 258 W/m2
08:04 2.5 °C -1.7 °C 1029 hPa NNW 1.6 km/h 6.4 km/h 74% 0 mm 229 W/m2
08:10 2.5 °C -1.8 °C 1029.3 hPa NNW 1.6 km/h 1.6 km/h 73% 0 mm 290 W/m2
08:16 2.9 °C -1.5 °C 1029.3 hPa Calm   4.8 km/h 73% 0 mm 279 W/m2
08:22 2.9 °C -1.6 °C 1029.3 hPa NNW 3.2 km/h 4.8 km/h 72% 0 mm 278 W/m2
08:28 3.1 °C -1.7 °C 1029.3 hPa NNW 3.2 km/h 4.8 km/h 71% 0 mm 288 W/m2
08:34 3.3 °C -1.9 °C 1029.7 hPa NNE 3.2 km/h 4.8 km/h 69% 0 mm 255 W/m2
08:40 3.4 °C -1.7 °C 1030 hPa NE 3.2 km/h 3.2 km/h 69% 0 mm 309 W/m2
08:46 3.7 °C -1.7 °C 1030 hPa NNW 3.2 km/h 6.4 km/h 68% 0 mm 327 W/m2
08:52 3.8 °C -1.6 °C 1029.7 hPa NNW 1.6 km/h 1.6 km/h 68% 0 mm 272 W/m2
08:58 3.9 °C -1.8 °C 1029.7 hPa North 3.2 km/h 6.4 km/h 66% 0 mm 260 W/m2
09:04 3.9 °C -1.9 °C 1029.7 hPa North 4.8 km/h 6.4 km/h 66% 0 mm 399 W/m2
09:10 4.2 °C -1.6 °C 1029.7 hPa NNE 4.8 km/h 4.8 km/h 66% 0 mm 392 W/m2
09:16 4.2 °C -1.6 °C 1030 hPa NE 3.2 km/h 4.8 km/h 66% 0 mm 508 W/m2
09:22 4.6 °C -1.2 °C 1030 hPa NW 1.6 km/h 4.8 km/h 66% 0 mm 508 W/m2
09:28 4.9 °C -1.2 °C 1030 hPa NW 1.6 km/h 4.8 km/h 65% 0 mm 550 W/m2
09:34 5.2 °C -0.9 °C 1030 hPa SW 1.6 km/h 6.4 km/h 65% 0 mm 568 W/m2
09:40 5.3 °C -0.9 °C 1030 hPa NNW 1.6 km/h 3.2 km/h 64% 0 mm 585 W/m2
09:46 5.4 °C -1.5 °C 1030 hPa WSW 3.2 km/h 4.8 km/h 61% 0 mm 605 W/m2
09:52 5.8 °C -0.1 °C 1030 hPa WNW 3.2 km/h 3.2 km/h 66% 0 mm 621 W/m2
10:04 5.9 °C -1.4 °C 1030 hPa WNW 3.2 km/h 3.2 km/h 59% 0 mm 659 W/m2
10:10 5.8 °C -0.9 °C 1030 hPa SW 3.2 km/h 3.2 km/h 62% 0 mm 675 W/m2
10:16 6.5 °C -0.9 °C 1030 hPa NW 3.2 km/h 3.2 km/h 59% 0 mm 687 W/m2
10:22 6.5 °C -0.5 °C 1030 hPa WNW 3.2 km/h 4.8 km/h 61% 0 mm 707 W/m2
10:28 6.6 °C -0.4 °C 1030 hPa WNW 3.2 km/h 4.8 km/h 61% 0 mm 719 W/m2
10:34 6.4 °C -1.1 °C 1030 hPa WSW 3.2 km/h 4.8 km/h 59% 0 mm 735 W/m2
10:40 6.4 °C -0.6 °C 1030 hPa NW 1.6 km/h 1.6 km/h 61% 0 mm 751 W/m2
10:46 7.1 °C -1.4 °C 1030 hPa NNW 1.6 km/h 6.4 km/h 55% 0 mm 765 W/m2
10:52 7.2 °C -0.8 °C 1030 hPa West 3.2 km/h 3.2 km/h 57% 0 mm 775 W/m2
10:58 7.8 °C -0.4 °C 1030 hPa WNW 3.2 km/h 4.8 km/h 56% 0 mm 788 W/m2
11:04 7.3 °C -0.2 °C 1030 hPa West 3.2 km/h 3.2 km/h 59% 0 mm 798 W/m2
11:10 7.3 °C -1.7 °C 1030 hPa South 1.6 km/h 1.6 km/h 53% 0 mm 809 W/m2
11:16 7.6 °C -0.9 °C 1030 hPa WSW 1.6 km/h 1.6 km/h 55% 0 mm 821 W/m2
11:22 8.1 °C -0.7 °C 1030 hPa North 1.6 km/h 8 km/h 54% 0 mm 830 W/m2
11:28 8.2 °C -0.8 °C 1030 hPa WSW 3.2 km/h 8 km/h 53% 0 mm 835 W/m2
11:34 7.4 °C -2.1 °C 1030 hPa WSW 3.2 km/h 8 km/h 51% 0 mm 846 W/m2
11:40 7.6 °C -0.9 °C 1030 hPa SE 3.2 km/h 8 km/h 55% 0 mm 853 W/m2
11:46 7.9 °C -0.6 °C 1030 hPa SSE 4.8 km/h 8 km/h 55% 0 mm 858 W/m2
11:52 8.1 °C -0.2 °C 1030 hPa WSW 4.8 km/h 6.4 km/h 56% 0 mm 867 W/m2
11:58 8.1 °C -1.2 °C 1030 hPa SSW 3.2 km/h 6.4 km/h 52% 0 mm 870 W/m2
12:04 8.4 °C -1.1 °C 1030 hPa NW 3.2 km/h 4.8 km/h 51% 0 mm 875 W/m2
12:10 8.7 °C -2 °C 1030 hPa WSW 3.2 km/h 3.2 km/h 47% 0 mm 879 W/m2
12:16 8.2 °C -2.5 °C 1030 hPa SSE 1.6 km/h 3.2 km/h 47% 0 mm 884 W/m2
12:22 9 °C -0.6 °C 1029.7 hPa WSW 3.2 km/h 6.4 km/h 51% 0 mm 888 W/m2
12:28 9.3 °C 0.9 °C 1029.7 hPa NW 3.2 km/h 9.7 km/h 56% 0 mm 889 W/m2
12:34 9.2 °C -0.7 °C 1029.7 hPa SW 4.8 km/h 8 km/h 50% 0 mm 893 W/m2
12:40 9.6 °C -0.1 °C 1029.3 hPa West 4.8 km/h 8 km/h 51% 0 mm 895 W/m2
12:46 9.3 °C -1.4 °C 1029.3 hPa SW 3.2 km/h 8 km/h 47% 0 mm 896 W/m2
12:52 9.6 °C -0.9 °C 1029.3 hPa SW 3.2 km/h 4.8 km/h 48% 0 mm 896 W/m2
12:58 9.6 °C -1.8 °C 1029.3 hPa WSW 4.8 km/h 6.4 km/h 45% 0 mm 902 W/m2
13:04 9.7 °C -1.4 °C 1029.3 hPa West 4.8 km/h 4.8 km/h 46% 0 mm 898 W/m2
13:10 9.6 °C -1.2 °C 1029.3 hPa North 4.8 km/h 8 km/h 47% 0 mm 898 W/m2
13:16 9.9 °C 1 °C 1029.3 hPa WNW 4.8 km/h 8 km/h 54% 0 mm 898 W/m2
13:22 9.6 °C -2.1 °C 1029.3 hPa SW 4.8 km/h 4.8 km/h 44% 0 mm 898 W/m2
13:28 9.7 °C -1.3 °C 1029.3 hPa NNE 3.2 km/h 4.8 km/h 46% 0 mm 896 W/m2
13:34 9.5 °C -1.6 °C 1029 hPa NNE 3.2 km/h 6.4 km/h 46% 0 mm 895 W/m2
13:40 10.3 °C -1.4 °C 1029 hPa West 3.2 km/h 3.2 km/h 44% 0 mm 893 W/m2
13:46 10.3 °C 0.8 °C 1029 hPa West 4.8 km/h 8 km/h 52% 0 mm 888 W/m2
13:52 10.6 °C -0.2 °C 1029 hPa West 3.2 km/h 3.2 km/h 47% 0 mm 886 W/m2
13:58 10.8 °C 1.1 °C 1028.7 hPa WNW 3.2 km/h 8 km/h 51% 0 mm 877 W/m2
14:04 11.1 °C -0.8 °C 1028.7 hPa West 3.2 km/h 6.4 km/h 44% 0 mm 875 W/m2
14:10 11 °C -0.5 °C 1028.3 hPa SW 3.2 km/h 3.2 km/h 45% 0 mm 872 W/m2
14:16 10.8 °C -1.3 °C 1028.7 hPa WNW 1.6 km/h 4.8 km/h 43% 0 mm 865 W/m2
14:22 11.2 °C -1.9 °C 1028.7 hPa South 3.2 km/h 6.4 km/h 40% 0 mm 860 W/m2
14:28 11.5 °C -1 °C 1028.7 hPa West 3.2 km/h 6.4 km/h 42% 0 mm 849 W/m2
14:34 11.6 °C -1.3 °C 1028.7 hPa West 3.2 km/h 6.4 km/h 41% 0 mm 844 W/m2
14:40 11.3 °C 0.1 °C 1028.7 hPa NW 3.2 km/h 6.4 km/h 46% 0 mm 831 W/m2
14:46 11.8 °C -2.1 °C 1028.3 hPa West 3.2 km/h 6.4 km/h 38% 0 mm 824 W/m2
14:52 11.4 °C -2.1 °C 1028.3 hPa West 1.6 km/h 3.2 km/h 39% 0 mm 817 W/m2
14:58 11.4 °C -0.1 °C 1028.3 hPa SE 1.6 km/h 6.4 km/h 45% 0 mm 807 W/m2
15:10 11.9 °C 0.6 °C 1028.3 hPa SE 4.8 km/h 4.8 km/h 46% 0 mm 784 W/m2
15:16 11.9 °C -1.3 °C 1028 hPa WSW 3.2 km/h 9.7 km/h 40% 0 mm 777 W/m2
15:22 12.2 °C -1 °C 1028 hPa SW 3.2 km/h 4.8 km/h 40% 0 mm 763 W/m2
15:28 12.1 °C -1.8 °C 1028 hPa South 3.2 km/h 4.8 km/h 38% 0 mm 749 W/m2
15:34 12 °C -1.6 °C 1028 hPa SSW 3.2 km/h 4.8 km/h 39% 0 mm 737 W/m2
15:42 13.1 °C 0.4 °C 1028 hPa WNW 3.2 km/h 6.4 km/h 42% 0 mm 717 W/m2
15:48 12.7 °C -1.3 °C 1028 hPa WNW 3.2 km/h 6.4 km/h 38% 0 mm 701 W/m2
15:54 13.1 °C -0.3 °C 1028 hPa WNW 3.2 km/h 6.4 km/h 40% 0 mm 686 W/m2
16:00 12.8 °C -0.2 °C 1027.7 hPa WSW 3.2 km/h 3.2 km/h 41% 0 mm 675 W/m2
16:06 12.6 °C -0.7 °C 1027.7 hPa South 4.8 km/h 4.8 km/h 40% 0 mm 657 W/m2
16:12 12.9 °C 0 °C 1027.3 hPa WSW 3.2 km/h 4.8 km/h 41% 0 mm 645 W/m2
16:18 13.5 °C -0.9 °C 1027.3 hPa WSW 1.6 km/h 4.8 km/h 37% 0 mm 624 W/m2
16:24 13.7 °C -0.4 °C 1027.3 hPa WSW 3.2 km/h 4.8 km/h 38% 0 mm 612 W/m2
16:30 13.1 °C -0.6 °C 1027.3 hPa WSW 3.2 km/h 4.8 km/h 39% 0 mm 599 W/m2
16:36 13 °C -1 °C 1027.3 hPa WSW 1.6 km/h 6.4 km/h 38% 0 mm 578 W/m2
16:42 13.2 °C -2.3 °C 1027.3 hPa SSE 3.2 km/h 4.8 km/h 34% 0 mm 564 W/m2
16:48 13.2 °C -1.9 °C 1027.3 hPa SW 4.8 km/h 4.8 km/h 35% 0 mm 545 W/m2
16:54 13.3 °C -1.8 °C 1027 hPa WSW 4.8 km/h 9.7 km/h 35% 0 mm 533 W/m2
17:00 13.7 °C -1.9 °C 1027 hPa WSW 4.8 km/h 4.8 km/h 34% 0 mm 512 W/m2
17:06 13.5 °C -1.7 °C 1027 hPa South 3.2 km/h 4.8 km/h 35% 0 mm 490 W/m2
17:12 13.2 °C -1.6 °C 1027 hPa SSE 4.8 km/h 4.8 km/h 36% 0 mm 471 W/m2
17:18 13 °C -1.7 °C 1027 hPa SSE 3.2 km/h 6.4 km/h 36% 0 mm 454 W/m2
17:24 13.6 °C -1.6 °C 1027 hPa West 1.6 km/h 3.2 km/h 35% 0 mm 434 W/m2
17:30 13.5 °C -0.9 °C 1027 hPa WSW 1.6 km/h 1.6 km/h 37% 0 mm 380 W/m2
17:36 13.7 °C -1.9 °C 1027 hPa SW 1.6 km/h 4.8 km/h 34% 0 mm 396 W/m2
17:42 13.8 °C -1 °C 1027 hPa WSW 1.6 km/h 6.4 km/h 36% 0 mm 301 W/m2
17:48 13.8 °C -1.1 °C 1027 hPa WSW 3.2 km/h 8 km/h 36% 0 mm 299 W/m2
17:54 13.7 °C -1.9 °C 1027 hPa SSW 3.2 km/h 4.8 km/h 34% 0 mm 229 W/m2
18:00 13.4 °C -0.7 °C 1027 hPa SW 3.2 km/h 3.2 km/h 38% 0 mm 192 W/m2
18:06 13.7 °C -0.8 °C 1027 hPa WSW 1.6 km/h 8 km/h 37% 0 mm 160 W/m2
18:12 13.6 °C -1.3 °C 1027 hPa West 1.6 km/h 3.2 km/h 36% 0 mm 160 W/m2
18:18 13.5 °C -1.3 °C 1027 hPa West 1.6 km/h 3.2 km/h 36% 0 mm 116 W/m2
18:24 13.5 °C -1.7 °C 1027 hPa SW 3.2 km/h 6.4 km/h 35% 0 mm 114 W/m2
18:30 13.3 °C -1.1 °C 1027 hPa SSE 3.2 km/h 3.2 km/h 37% 0 mm 113 W/m2
18:36 13.2 °C -1.6 °C 1027 hPa SSE 1.6 km/h 3.2 km/h 36% 0 mm 128 W/m2
18:42 12.9 °C -1.4 °C 1027.3 hPa ENE 1.6 km/h 1.6 km/h 37% 0 mm 113 W/m2
18:48 12.6 °C -1.7 °C 1027.3 hPa ENE 3.2 km/h 6.4 km/h 37% 0 mm 54 W/m2
18:54 12.3 °C -1.9 °C 1027.3 hPa ENE 4.8 km/h 4.8 km/h 37% 0 mm 100 W/m2
19:00 12.3 °C -1.6 °C 1027 hPa ENE 3.2 km/h 3.2 km/h 38% 0 mm 69 W/m2
19:06 12.1 °C -2.2 °C 1027 hPa ENE 3.2 km/h 8 km/h 37% 0 mm 46 W/m2
19:12 11.9 °C -1.6 °C 1027 hPa ENE 4.8 km/h 4.8 km/h 39% 0 mm 26 W/m2
19:18 11.8 °C -1.7 °C 1027 hPa ENE 3.2 km/h 4.8 km/h 39% 0 mm 21 W/m2
19:24 11.6 °C -2.2 °C 1027 hPa ENE 1.6 km/h 1.6 km/h 38% 0 mm 19 W/m2
19:30 11.6 °C -1.9 °C 1027 hPa ENE 1.6 km/h 1.6 km/h 39% 0 mm 14 W/m2
19:36 11.4 °C -1.8 °C 1027 hPa ENE 1.6 km/h 1.6 km/h 40% 0 mm 11 W/m2
19:42 11.1 °C -1.7 °C 1027 hPa Calm   1.6 km/h 41% 0 mm 7 W/m2
19:48 10.6 °C -0.8 °C 1026.6 hPa Calm   1.6 km/h 45% 0 mm 0 W/m2
19:54 10.3 °C -1.8 °C 1026.6 hPa Calm   3.2 km/h 43% 0 mm 0 W/m2
20:00 10.1 °C -1.3 °C 1026.6 hPa Calm     45% 0 mm 0 W/m2
20:06 9.8 °C -1.3 °C 1026.6 hPa Calm     46% 0 mm 0 W/m2
20:12 9.7 °C 0 °C 1026.3 hPa Calm   1.6 km/h 51% 0 mm 0 W/m2
20:18 9.4 °C 2.1 °C 1026.3 hPa Calm   1.6 km/h 60% 0 mm 0 W/m2
20:24 9.1 °C 1.2 °C 1026.3 hPa Calm     58% 0 mm 0 W/m2
20:30 8.7 °C -0.1 °C 1026.3 hPa Calm     54% 0 mm 0 W/m2
20:36 8.4 °C 0.4 °C 1026.3 hPa Calm     57% 0 mm 0 W/m2
20:42 8.3 °C 0.9 °C 1026.3 hPa Calm     60% 0 mm 0 W/m2
20:50 7.9 °C 1.1 °C 1026.3 hPa Calm     62% 0 mm 0 W/m2
20:56 7.7 °C 0.8 °C 1026.3 hPa Calm     62% 0 mm 0 W/m2
21:02 7.4 °C 1.3 °C 1026.3 hPa Calm     65% 0 mm 0 W/m2
21:08 7.3 °C 1.4 °C 1026.3 hPa Calm     66% 0 mm 0 W/m2
21:14 7.1 °C 1.4 °C 1026.3 hPa Calm     67% 0 mm 0 W/m2
21:20 6.9 °C 1.2 °C 1026.3 hPa Calm     67% 0 mm 0 W/m2
21:26 6.7 °C 0.3 °C 1026.3 hPa Calm     64% 0 mm 0 W/m2
21:32 6.6 °C 0 °C 1026.3 hPa Calm     63% 0 mm 0 W/m2
21:38 6.6 °C 0.9 °C 1026.3 hPa Calm   1.6 km/h 67% 0 mm 0 W/m2
21:44 6.4 °C -0.1 °C 1026.3 hPa Calm     63% 0 mm 0 W/m2
21:50 6.4 °C 0.1 °C 1026.3 hPa Calm     64% 0 mm 0 W/m2
21:56 6.4 °C 0.3 °C 1026.3 hPa Calm     65% 0 mm 0 W/m2
22:08 6.4 °C -0.1 °C 1026.3 hPa Calm     63% 0 mm 0 W/m2
22:14 6.4 °C -0.1 °C 1026.3 hPa Calm     63% 0 mm 0 W/m2
22:20 6.5 °C -0.5 °C 1026.3 hPa Calm     61% 0 mm 0 W/m2
22:26 6.6 °C 0.7 °C 1026.3 hPa Calm     66% 0 mm 0 W/m2
22:32 6.6 °C 0.7 °C 1026.3 hPa Calm     66% 0 mm 0 W/m2
22:38 6.3 °C 0.2 °C 1026.3 hPa Calm     65% 0 mm 0 W/m2
22:44 6.2 °C 0.3 °C 1026 hPa Calm     66% 0 mm 0 W/m2
22:50 6.2 °C 0.9 °C 1026.3 hPa Calm     69% 0 mm 0 W/m2
22:56 6.2 °C 1.3 °C 1026.3 hPa Calm     71% 0 mm 0 W/m2
23:02 6.1 °C 1.2 °C 1026 hPa Calm     71% 0 mm 0 W/m2
23:08 6.1 °C 1 °C 1026 hPa Calm     70% 0 mm 0 W/m2
23:14 6.1 °C 0.4 °C 1025.6 hPa Calm     67% 0 mm 0 W/m2
23:20 6.1 °C 1.1 °C 1025.6 hPa Calm     70% 0 mm 0 W/m2
23:26 6.1 °C 0 °C 1025.6 hPa Calm     65% 0 mm 0 W/m2
23:32 6.4 °C -0.6 °C 1025.6 hPa Calm     61% 0 mm 0 W/m2
23:38 6.7 °C -0.7 °C 1025.3 hPa Calm   1.6 km/h 59% 0 mm 0 W/m2
23:44 7.1 °C -1.1 °C 1025.3 hPa Calm   1.6 km/h 56% 0 mm 0 W/m2
23:50 7.3 °C -1.1 °C 1025.6 hPa East 1.6 km/h 1.6 km/h 55% 0 mm 0 W/m2
23:56 7.3 °C -0.9 °C 1025.3 hPa Calm   1.6 km/h 56% 0 mm 0 W/m2
Country Meadow, Clay, NY, USA
Compliments of Weather Underground - 2 mb